createdAt,value
2022-09-06T00:01:13.382Z,4.78
2022-09-06T00:03:49.025Z,3.70
2022-09-06T00:06:23.660Z,2.50
2022-09-06T00:08:55.162Z,3.22
2022-09-06T00:11:27.299Z,7.63
2022-09-06T00:13:59.261Z,4.55
2022-09-06T00:16:31.374Z,4.03
2022-09-06T00:19:05.858Z,3.60
2022-09-06T00:21:39.683Z,2.55
2022-09-06T00:24:11.580Z,5.47
2022-09-06T00:26:43.488Z,3.63
2022-09-06T00:29:17.384Z,3.50
2022-09-06T00:31:50.252Z,3.95
2022-09-06T00:34:24.828Z,2.05
2022-09-06T00:36:57.230Z,3.47
2022-09-06T00:39:29.099Z,5.15
2022-09-06T00:42:01.579Z,3.15
2022-09-06T00:44:36.434Z,7.45
2022-09-06T00:47:11.372Z,5.07
2022-09-06T00:49:53.246Z,2.92
2022-09-06T00:52:26.633Z,3.22
2022-09-06T00:54:59.246Z,3.95
2022-09-06T00:57:33.453Z,3.13
2022-09-06T01:00:08.773Z,3.22
2022-09-06T01:02:41.010Z,2.50
2022-09-06T01:05:17.209Z,4.28
2022-09-06T01:08:01.899Z,5.95
2022-09-06T01:10:58.837Z,5.07
2022-09-06T01:13:41.149Z,3.58
2022-09-06T01:16:23.936Z,2.83
2022-09-06T01:19:31.253Z,4.65
2022-09-06T01:22:19.078Z,5.95
2022-09-06T01:25:07.422Z,2.65
2022-09-06T01:28:20.629Z,4.00
2022-09-06T01:31:04.049Z,4.35
2022-09-06T01:33:45.146Z,3.50
2022-09-06T01:36:22.351Z,4.63
2022-09-06T01:38:53.803Z,4.60
2022-09-06T01:41:25.648Z,5.20
2022-09-06T01:43:58.443Z,4.75
2022-09-06T01:46:40.276Z,4.93
2022-09-06T01:49:27.653Z,3.00
2022-09-06T01:52:13.154Z,3.42
2022-09-06T01:55:01.706Z,5.88
2022-09-06T01:57:53.641Z,4.78
2022-09-06T02:00:25.688Z,5.10
2022-09-06T02:03:12.614Z,5.10
2022-09-06T02:05:49.769Z,3.75
2022-09-06T02:08:27.427Z,5.78
2022-09-06T02:11:03.886Z,4.22
2022-09-06T02:13:40.456Z,3.60
2022-09-06T02:16:16.863Z,2.17
2022-09-06T02:18:59.098Z,4.22
2022-09-06T02:21:35.439Z,4.97
2022-09-06T02:24:11.298Z,3.08
2022-09-06T02:26:46.913Z,2.70
2022-09-06T02:29:20.312Z,2.45
2022-09-06T02:31:56.222Z,4.63
2022-09-06T02:34:31.367Z,2.83
2022-09-06T02:37:04.116Z,3.83
2022-09-06T02:39:39.019Z,4.68
2022-09-06T02:42:17.902Z,4.30
2022-09-06T02:44:50.471Z,3.08
2022-09-06T02:47:25.304Z,5.68
2022-09-06T02:50:00.165Z,4.07
2022-09-06T02:52:31.676Z,2.97
2022-09-06T02:55:04.856Z,7.50
2022-09-06T02:57:37.046Z,8.77
2022-09-06T03:00:09.702Z,3.58
2022-09-06T03:02:42.678Z,3.67
2022-09-06T03:05:18.783Z,6.43
2022-09-06T03:07:54.631Z,6.88
2022-09-06T03:10:29.046Z,2.78
2022-09-06T03:13:00.667Z,3.17
2022-09-06T03:15:33.074Z,5.00
2022-09-06T03:18:05.147Z,3.58
2022-09-06T03:20:40.887Z,2.70
2022-09-06T03:23:12.750Z,4.05
2022-09-06T03:25:46.304Z,3.50
2022-09-06T03:28:18.112Z,5.45
2022-09-06T03:30:51.924Z,5.85
2022-09-06T03:33:24.921Z,3.10
2022-09-06T03:36:03.139Z,6.97
2022-09-06T03:38:34.895Z,2.70
2022-09-06T03:41:06.528Z,3.80
2022-09-06T03:43:38.402Z,6.90
2022-09-06T03:46:10.919Z,3.17
2022-09-06T03:48:42.625Z,2.88
2022-09-06T03:51:17.419Z,5.63
2022-09-06T03:53:49.212Z,1.90
2022-09-06T03:56:21.173Z,5.60
2022-09-06T03:58:53.210Z,3.45
2022-09-06T04:01:25.261Z,4.22
2022-09-06T04:03:59.003Z,2.40
2022-09-06T04:06:33.424Z,5.13
2022-09-06T04:09:06.628Z,1.98
2022-09-06T04:11:38.668Z,3.85
2022-09-06T04:14:10.084Z,4.18
2022-09-06T04:16:41.625Z,4.97
2022-09-06T04:19:13.017Z,6.65
2022-09-06T04:21:47.848Z,3.47
2022-09-06T04:24:22.772Z,4.50
2022-09-06T04:26:54.987Z,4.70
2022-09-06T04:29:26.744Z,2.90
2022-09-06T04:31:58.799Z,3.88
2022-09-06T04:34:31.370Z,3.92
2022-09-06T04:37:05.976Z,6.95
2022-09-06T04:39:37.716Z,3.97
2022-09-06T04:42:10.013Z,4.03
2022-09-06T04:44:41.685Z,8.45
2022-09-06T04:47:18.555Z,3.10
2022-09-06T04:49:51.420Z,3.05
2022-09-06T04:52:30.226Z,3.38
2022-09-06T04:55:03.561Z,4.28
2022-09-06T04:57:35.526Z,2.97
2022-09-06T05:00:10.643Z,4.70
2022-09-06T05:02:45.355Z,6.53
2022-09-06T05:05:17.246Z,5.07
2022-09-06T05:07:51.075Z,4.63
2022-09-06T05:10:26.926Z,4.10
2022-09-06T05:12:58.606Z,5.07
2022-09-06T05:15:30.071Z,3.50
2022-09-06T05:18:14.146Z,6.00
2022-09-06T05:20:55.455Z,9.77
2022-09-06T05:23:31.935Z,5.80
2022-09-06T05:26:04.054Z,6.20
2022-09-06T05:28:36.675Z,5.10
2022-09-06T05:31:10.354Z,6.70
2022-09-06T05:33:43.315Z,5.72
2022-09-06T05:36:15.815Z,5.65
2022-09-06T05:38:54.935Z,5.50
2022-09-06T05:41:28.553Z,9.50
2022-09-06T05:44:00.913Z,3.97
2022-09-06T05:46:33.320Z,4.80
2022-09-06T05:49:08.282Z,4.72
2022-09-06T05:51:39.908Z,7.63
2022-09-06T05:54:17.149Z,5.45
2022-09-06T05:56:48.737Z,5.00
2022-09-06T05:59:20.652Z,9.73
2022-09-06T06:01:54.679Z,6.85
2022-09-06T06:04:26.626Z,3.88
2022-09-06T06:06:58.404Z,6.70
2022-09-06T06:09:33.426Z,9.73
2022-09-06T06:12:04.941Z,6.45
2022-09-06T06:14:37.156Z,7.20
2022-09-06T06:17:08.939Z,6.18
2022-09-06T06:19:40.694Z,8.57
2022-09-06T06:22:12.315Z,8.32
2022-09-06T06:24:47.056Z,6.50
2022-09-06T06:27:18.580Z,6.30
2022-09-06T06:29:50.882Z,6.32
2022-09-06T06:32:24.342Z,4.43
2022-09-06T06:34:55.934Z,5.30
2022-09-06T06:37:29.438Z,10.40
2022-09-06T06:40:06.016Z,9.75
2022-09-06T06:42:37.767Z,4.55
2022-09-06T06:45:11.556Z,6.47
2022-09-06T06:47:43.178Z,6.07
2022-09-06T06:50:14.873Z,6.95
2022-09-06T06:52:46.272Z,5.22
2022-09-06T06:55:20.701Z,3.92
2022-09-06T06:57:52.180Z,7.28
2022-09-06T07:00:28.129Z,4.95
2022-09-06T07:03:00.720Z,5.38
2022-09-06T07:08:25.400Z,6.30
2022-09-06T07:11:00.573Z,3.90
2022-09-06T07:13:34.436Z,2.97
2022-09-06T07:16:12.554Z,5.35
2022-09-06T07:18:46.275Z,7.55
2022-09-06T07:24:13.073Z,4.13
2022-09-06T07:29:40.754Z,5.40
2022-09-06T07:32:13.323Z,5.25
2022-09-06T07:34:45.671Z,7.22
2022-09-06T07:37:18.949Z,6.13
2022-09-06T07:39:51.629Z,5.43
2022-09-06T07:42:27.615Z,6.00
2022-09-06T07:45:00.571Z,12.35
2022-09-06T07:53:26.339Z,16.33
2022-09-06T07:56:03.862Z,9.88
2022-09-06T07:58:40.485Z,6.00
2022-09-06T08:01:30.940Z,9.23
2022-09-06T08:04:06.022Z,23.60
2022-09-06T08:09:33.912Z,18.20
2022-09-06T08:12:07.794Z,13.98
2022-09-06T08:14:43.172Z,18.85
2022-09-06T08:17:16.335Z,11.48
2022-09-06T08:19:49.772Z,7.00
2022-09-06T08:22:22.653Z,11.07
2022-09-06T08:24:56.106Z,9.55
2022-09-06T08:27:29.273Z,6.18
2022-09-06T08:30:05.561Z,5.80
2022-09-06T08:32:39.651Z,6.38
2022-09-06T08:35:14.150Z,6.78
2022-09-06T08:37:47.010Z,6.28
2022-09-06T08:40:26.437Z,8.00
2022-09-06T08:42:59.160Z,7.15
2022-09-06T08:45:37.450Z,11.82
2022-09-06T08:48:09.439Z,8.65
2022-09-06T08:50:45.210Z,11.10
2022-09-06T08:53:22.535Z,8.20
2022-09-06T08:56:03.263Z,9.73
2022-09-06T08:58:54.092Z,7.35
2022-09-06T09:01:38.704Z,8.55
2022-09-06T09:04:22.882Z,16.10
2022-09-06T09:07:03.972Z,12.00
2022-09-06T09:09:41.056Z,16.05
2022-09-06T09:12:20.363Z,6.75
2022-09-06T09:14:57.341Z,8.93
2022-09-06T09:17:35.760Z,8.40
2022-09-06T09:20:08.754Z,6.20
2022-09-06T09:22:43.996Z,6.40
2022-09-06T09:25:24.547Z,11.55
2022-09-06T09:28:01.665Z,8.98
2022-09-06T09:30:50.975Z,8.30
2022-09-06T09:33:36.069Z,8.43
2022-09-06T09:36:14.814Z,8.43
2022-09-06T09:38:49.851Z,9.10
2022-09-06T09:41:32.050Z,7.10
2022-09-06T09:44:07.238Z,8.77
2022-09-06T09:46:42.957Z,7.78
2022-09-06T09:49:33.097Z,12.38
2022-09-06T09:52:13.308Z,10.68
2022-09-06T09:54:49.099Z,12.07
2022-09-06T09:57:23.121Z,7.07
2022-09-06T09:59:57.923Z,10.10
2022-09-06T10:02:33.740Z,8.35
2022-09-06T10:05:22.350Z,7.28
2022-09-06T10:07:58.918Z,17.88
2022-09-06T10:10:39.478Z,16.00
2022-09-06T10:13:16.384Z,15.00
2022-09-06T10:15:48.311Z,8.50
2022-09-06T10:18:32.679Z,10.93
2022-09-06T10:21:11.534Z,9.85
2022-09-06T10:27:02.680Z,8.25
2022-09-06T10:29:43.327Z,7.57
2022-09-06T10:32:32.071Z,9.20
2022-09-06T10:35:15.290Z,9.55
2022-09-06T10:38:15.163Z,7.15
2022-09-06T10:40:57.262Z,7.30
2022-09-06T10:43:33.516Z,7.20
2022-09-06T10:46:10.168Z,8.65
2022-09-06T10:48:48.089Z,10.32
2022-09-06T10:51:34.544Z,8.25
2022-09-06T10:54:28.091Z,6.20
2022-09-06T10:57:06.358Z,5.32
2022-09-06T10:59:46.183Z,8.27
2022-09-06T11:02:39.448Z,7.50
2022-09-06T11:11:17.373Z,9.43
2022-09-06T11:13:50.743Z,9.35
2022-09-06T11:16:26.377Z,8.90
2022-09-06T11:19:05.768Z,10.27
2022-09-06T11:22:01.363Z,8.48
2022-09-06T11:24:49.208Z,10.10
2022-09-06T11:27:36.731Z,8.18
2022-09-06T11:30:10.464Z,7.95
2022-09-06T11:32:49.353Z,13.65
2022-09-06T11:35:29.700Z,9.15
2022-09-06T11:38:08.412Z,9.48
2022-09-06T11:40:41.927Z,9.20
2022-09-06T11:43:20.351Z,13.75
2022-09-06T11:45:55.475Z,13.02
2022-09-06T11:49:03.891Z,11.65
2022-09-06T11:51:40.211Z,11.65
2022-09-06T11:54:34.492Z,12.90
2022-09-06T11:57:18.227Z,8.38
2022-09-06T12:00:05.138Z,16.58
2022-09-06T12:02:41.218Z,17.08
2022-09-06T12:05:18.167Z,13.73
2022-09-06T12:08:27.086Z,9.77
2022-09-06T12:11:30.174Z,6.95
2022-09-06T12:14:09.893Z,10.75
2022-09-06T12:17:12.991Z,8.95
2022-09-06T12:19:52.287Z,8.45
2022-09-06T12:23:06.829Z,12.05
2022-09-06T12:26:00.437Z,8.70
2022-09-06T12:28:44.549Z,6.57
2022-09-06T12:31:45.866Z,8.27
2022-09-06T12:34:24.365Z,12.38
2022-09-06T12:37:04.945Z,13.27
2022-09-06T12:39:37.451Z,8.60
2022-09-06T12:42:17.024Z,11.05
2022-09-06T12:44:54.942Z,10.32
2022-09-06T12:47:31.755Z,7.10
2022-09-06T12:50:13.444Z,13.00
2022-09-06T12:52:54.640Z,8.68
2022-09-06T12:55:33.291Z,9.43
2022-09-06T12:58:07.489Z,7.35
2022-09-06T13:00:54.805Z,11.90
2022-09-06T13:03:32.955Z,10.05
2022-09-06T13:06:09.531Z,8.02
2022-09-06T13:08:50.182Z,10.02
2022-09-06T13:11:29.969Z,7.07
2022-09-06T13:14:02.080Z,9.95
2022-09-06T13:16:39.988Z,7.28
2022-09-06T13:19:17.052Z,8.90
2022-09-06T13:21:49.861Z,8.48
2022-09-06T13:24:27.284Z,9.23
2022-09-06T13:26:59.104Z,8.98
2022-09-06T13:29:34.310Z,6.75
2022-09-06T13:32:09.966Z,8.52
2022-09-06T13:41:41.644Z,8.77
2022-09-06T13:44:31.593Z,6.70
2022-09-06T13:47:03.919Z,6.75
2022-09-06T13:49:37.116Z,9.63
2022-09-06T13:52:09.841Z,7.35
2022-09-06T13:54:42.673Z,10.77
2022-09-06T13:57:23.527Z,7.63
2022-09-06T13:59:57.035Z,8.18
2022-09-06T14:02:29.905Z,9.30
2022-09-06T14:05:02.713Z,7.25
2022-09-06T14:07:35.196Z,6.43
2022-09-06T14:10:09.116Z,8.90
2022-09-06T14:12:44.716Z,8.45
2022-09-06T14:15:17.835Z,6.55
2022-09-06T14:17:50.058Z,7.85
2022-09-06T14:20:21.781Z,10.57
2022-09-06T14:22:53.779Z,10.32
2022-09-06T14:25:25.996Z,11.55
2022-09-06T14:28:01.375Z,8.10
2022-09-06T14:30:33.499Z,7.25
2022-09-06T14:33:05.096Z,10.07
2022-09-06T14:35:37.039Z,10.10
2022-09-06T14:38:08.504Z,13.10
2022-09-06T14:40:44.538Z,6.72
2022-09-06T14:43:18.894Z,12.40
2022-09-06T14:45:50.935Z,11.57
2022-09-06T14:48:28.647Z,6.93
2022-09-06T14:51:02.686Z,7.22
2022-09-06T14:53:40.300Z,7.57
2022-09-06T14:56:14.086Z,11.65
2022-09-06T14:58:48.476Z,7.32
2022-09-06T15:01:23.527Z,7.57
2022-09-06T15:03:58.234Z,8.65
2022-09-06T15:06:39.359Z,13.32
2022-09-06T15:09:11.804Z,9.02
2022-09-06T15:11:46.094Z,8.90
2022-09-06T15:14:23.259Z,9.50
2022-09-06T15:16:58.371Z,9.50
2022-09-06T15:19:34.306Z,9.02
2022-09-06T15:22:07.402Z,7.95
2022-09-06T15:24:40.613Z,8.95
2022-09-06T15:27:12.297Z,8.23
2022-09-06T15:29:49.260Z,7.70
2022-09-06T15:32:21.336Z,9.40
2022-09-06T15:34:53.012Z,6.85
2022-09-06T15:37:25.480Z,9.40
2022-09-06T15:39:56.954Z,7.55
2022-09-06T15:42:29.633Z,7.00
2022-09-06T15:45:04.335Z,7.40
2022-09-06T15:47:36.707Z,8.63
2022-09-06T15:50:10.391Z,11.15
2022-09-06T15:52:42.150Z,12.80
2022-09-06T15:55:26.049Z,8.30
2022-09-06T15:57:58.084Z,9.73
2022-09-06T16:00:32.223Z,9.40
2022-09-06T16:03:05.029Z,7.97
2022-09-06T16:08:30.037Z,12.43
2022-09-06T16:11:03.754Z,7.93
2022-09-06T16:13:36.455Z,8.63
2022-09-06T16:16:12.260Z,9.38
2022-09-06T16:18:46.887Z,7.55
2022-09-06T16:21:20.499Z,7.00
2022-09-06T16:23:53.721Z,7.13
2022-09-06T16:26:26.469Z,11.95
2022-09-06T16:28:58.412Z,8.88
2022-09-06T16:31:39.145Z,9.32
2022-09-06T16:34:13.399Z,7.32
2022-09-06T16:36:45.241Z,9.50
2022-09-06T16:39:16.887Z,7.05
2022-09-06T16:41:50.143Z,7.68
2022-09-06T16:44:22.299Z,8.57
2022-09-06T16:47:01.483Z,8.20
2022-09-06T16:49:33.313Z,8.35
2022-09-06T16:52:04.581Z,7.07
2022-09-06T16:54:37.472Z,11.30
2022-09-06T16:57:08.634Z,8.32
2022-09-06T16:59:41.052Z,8.98
2022-09-06T17:02:14.884Z,8.07
2022-09-06T17:04:46.557Z,11.70
2022-09-06T17:07:22.896Z,9.65
2022-09-06T17:09:54.971Z,9.65
2022-09-06T17:12:26.573Z,6.78
2022-09-06T17:14:58.385Z,12.25
2022-09-06T17:17:29.852Z,9.60
2022-09-06T17:20:02.360Z,8.55
2022-09-06T17:22:34.627Z,9.27
2022-09-06T17:25:08.071Z,8.52
2022-09-06T17:27:40.100Z,10.13
2022-09-06T17:30:14.268Z,9.52
2022-09-06T17:32:49.304Z,8.25
2022-09-06T17:35:21.896Z,10.25
2022-09-06T17:37:54.338Z,11.15
2022-09-06T17:40:26.939Z,6.35
2022-09-06T17:42:59.384Z,8.43
2022-09-06T17:45:32.303Z,9.10
2022-09-06T17:48:07.424Z,10.93
2022-09-06T17:50:41.941Z,7.80
2022-09-06T17:53:14.498Z,7.13
2022-09-06T17:55:48.255Z,9.88
2022-09-06T17:58:20.014Z,10.30
2022-09-06T18:00:52.552Z,11.25
2022-09-06T18:03:26.872Z,9.55
2022-09-06T18:05:58.664Z,8.30
2022-09-06T18:08:31.010Z,11.65
2022-09-06T18:11:11.342Z,8.50
2022-09-06T18:13:43.271Z,8.90
2022-09-06T18:16:17.479Z,9.27
2022-09-06T18:19:01.077Z,8.57
2022-09-06T18:21:34.384Z,9.10
2022-09-06T18:24:07.511Z,9.77
2022-09-06T18:26:40.051Z,11.70
2022-09-06T18:29:13.928Z,10.00
2022-09-06T18:31:48.905Z,7.47
2022-09-06T18:34:23.792Z,9.57
2022-09-06T18:36:55.696Z,6.90
2022-09-06T18:39:29.154Z,9.30
2022-09-06T18:42:07.379Z,9.65
2022-09-06T18:44:41.488Z,9.30
2022-09-06T18:47:15.427Z,9.13
2022-09-06T18:49:52.878Z,10.45
2022-09-06T18:52:28.186Z,10.25
2022-09-06T18:55:01.481Z,9.25
2022-09-06T18:57:35.415Z,7.18
2022-09-06T19:00:08.863Z,7.07
2022-09-06T19:02:41.927Z,7.93
2022-09-06T19:05:17.275Z,8.98
2022-09-06T19:07:50.000Z,9.05
2022-09-06T19:10:22.319Z,6.88
2022-09-06T19:12:55.028Z,7.10
2022-09-06T19:15:27.356Z,9.07
2022-09-06T19:18:00.548Z,9.52
2022-09-06T19:20:35.314Z,10.23
2022-09-06T19:23:07.674Z,12.23
2022-09-06T19:25:39.794Z,8.50
2022-09-06T19:28:12.513Z,8.50
2022-09-06T19:30:44.764Z,8.98
2022-09-06T19:33:17.753Z,7.97
2022-09-06T19:36:11.024Z,9.07
2022-09-06T19:39:02.477Z,7.82
2022-09-06T19:41:39.059Z,8.52
2022-09-06T19:44:12.526Z,6.93
2022-09-06T19:46:48.950Z,8.57
2022-09-06T19:49:24.347Z,7.43
2022-09-06T19:52:09.951Z,9.98
2022-09-06T19:54:44.891Z,9.18
2022-09-06T19:57:19.610Z,9.93
2022-09-06T19:59:51.319Z,9.63
2022-09-06T20:02:23.049Z,9.43
2022-09-06T20:04:54.383Z,6.85
2022-09-06T20:07:28.750Z,8.15
2022-09-06T20:10:00.810Z,6.10
2022-09-06T20:12:32.995Z,7.45
2022-09-06T20:15:06.669Z,7.10
2022-09-06T20:17:40.399Z,5.65
2022-09-06T20:20:16.785Z,9.70
2022-09-06T20:22:52.855Z,9.60
2022-09-06T20:25:29.566Z,8.50
2022-09-06T20:28:01.805Z,9.10
2022-09-06T20:30:35.688Z,8.93
2022-09-06T20:33:08.712Z,9.18
2022-09-06T20:35:40.532Z,10.85
2022-09-06T20:38:16.077Z,5.93
2022-09-06T20:40:47.926Z,7.25
2022-09-06T20:43:19.382Z,7.28
2022-09-06T20:45:53.189Z,8.45
2022-09-06T20:48:26.275Z,6.57
2022-09-06T20:51:03.553Z,9.40
2022-09-06T20:53:41.032Z,10.10
2022-09-06T20:56:22.536Z,11.65
2022-09-06T20:58:59.243Z,5.90
2022-09-06T21:01:37.237Z,7.85
2022-09-06T21:04:11.348Z,6.72
2022-09-06T21:06:50.264Z,5.95
2022-09-06T21:09:24.676Z,8.02
2022-09-06T21:11:58.533Z,4.50
2022-09-06T21:14:40.522Z,7.65
2022-09-06T21:17:12.822Z,8.27
2022-09-06T21:19:45.961Z,4.88
2022-09-06T21:22:19.423Z,7.63
2022-09-06T21:24:54.503Z,7.75
2022-09-06T21:27:26.450Z,6.20
2022-09-06T21:29:58.236Z,7.32
2022-09-06T21:32:32.814Z,5.00
2022-09-06T21:35:05.746Z,5.43
2022-09-06T21:37:39.486Z,5.72
2022-09-06T21:40:18.120Z,6.90
2022-09-06T21:42:50.285Z,8.30
2022-09-06T21:45:22.455Z,6.85
2022-09-06T21:47:55.916Z,8.35
2022-09-06T21:50:29.039Z,9.27
2022-09-06T21:53:00.903Z,7.88
2022-09-06T21:55:38.805Z,5.60
2022-09-06T21:58:12.719Z,5.65
2022-09-06T22:00:47.161Z,6.03
2022-09-06T22:03:20.538Z,4.53
2022-09-06T22:05:53.112Z,5.50
2022-09-06T22:08:54.995Z,8.13
2022-09-06T22:11:33.656Z,8.25
2022-09-06T22:14:09.339Z,7.38
2022-09-06T22:16:42.883Z,5.47
2022-09-06T22:19:17.776Z,7.30
2022-09-06T22:21:50.665Z,12.95
2022-09-06T22:24:44.256Z,4.68
2022-09-06T22:27:19.327Z,10.80
2022-09-06T22:29:52.362Z,6.55
2022-09-06T22:32:24.578Z,5.88
2022-09-06T22:34:56.832Z,9.25
2022-09-06T22:37:28.682Z,4.22
2022-09-06T22:40:01.083Z,6.88
2022-09-06T22:42:35.733Z,8.98
2022-09-06T22:45:09.532Z,7.20
2022-09-06T22:47:41.713Z,8.77
2022-09-06T22:50:14.313Z,7.35
2022-09-06T22:52:46.213Z,6.13
2022-09-06T22:55:18.976Z,5.70
2022-09-06T22:57:53.872Z,8.05
2022-09-06T23:00:27.324Z,7.00
2022-09-06T23:02:59.611Z,5.30
2022-09-06T23:05:33.870Z,11.05
2022-09-06T23:08:06.853Z,7.65
2022-09-06T23:10:44.670Z,5.30
2022-09-06T23:13:19.798Z,7.47
2022-09-06T23:15:51.859Z,3.78
2022-09-06T23:18:24.082Z,4.97
2022-09-06T23:20:56.545Z,8.75
2022-09-06T23:23:28.752Z,7.43
2022-09-06T23:26:01.173Z,6.05
2022-09-06T23:28:36.054Z,7.20
2022-09-06T23:31:09.526Z,5.03
2022-09-06T23:33:42.197Z,5.80
2022-09-06T23:36:16.722Z,6.72
2022-09-06T23:38:48.583Z,6.00
2022-09-06T23:41:21.194Z,8.68
2022-09-06T23:43:55.100Z,9.32
2022-09-06T23:46:35.126Z,5.10
2022-09-06T23:49:06.749Z,5.75
2022-09-06T23:51:38.366Z,5.50
2022-09-06T23:54:09.966Z,7.40
2022-09-06T23:56:41.720Z,3.90
2022-09-06T23:59:15.690Z,6.60
